sensor_id;sensor_type;location;lat;lon;timestamp;temperature;humidity
30063;DHT22;16889;67.864;24.990;2023-10-09T00:04:10;-2.70;99.90
30063;DHT22;16889;67.864;24.990;2023-10-09T00:08:57;-2.70;99.90
30063;DHT22;16889;67.864;24.990;2023-10-09T00:13:44;-2.70;99.90
30063;DHT22;16889;67.864;24.990;2023-10-09T00:18:37;-2.70;99.90
30063;DHT22;16889;67.864;24.990;2023-10-09T00:23:23;-2.60;99.90
30063;DHT22;16889;67.864;24.990;2023-10-09T00:28:11;-2.70;99.90
30063;DHT22;16889;67.864;24.990;2023-10-09T00:32:58;-2.70;99.90
30063;DHT22;16889;67.864;24.990;2023-10-09T00:37:44;-2.70;99.90
30063;DHT22;16889;67.864;24.990;2023-10-09T00:42:31;-2.70;99.90
30063;DHT22;16889;67.864;24.990;2023-10-09T00:47:20;-2.70;99.90
30063;DHT22;16889;67.864;24.990;2023-10-09T00:52:07;-2.70;99.90
30063;DHT22;16889;67.864;24.990;2023-10-09T00:57:02;-2.60;99.90
30063;DHT22;16889;67.864;24.990;2023-10-09T01:01:52;-2.50;99.90
30063;DHT22;16889;67.864;24.990;2023-10-09T01:06:50;-2.50;99.90
30063;DHT22;16889;67.864;24.990;2023-10-09T01:11:51;-2.50;99.90
30063;DHT22;16889;67.864;24.990;2023-10-09T01:16:43;-2.50;99.90
30063;DHT22;16889;67.864;24.990;2023-10-09T01:21:29;-2.50;99.90
30063;DHT22;16889;67.864;24.990;2023-10-09T01:26:17;-2.50;99.90
30063;DHT22;16889;67.864;24.990;2023-10-09T01:31:04;-2.50;99.90
30063;DHT22;16889;67.864;24.990;2023-10-09T01:35:52;-2.40;99.90
30063;DHT22;16889;67.864;24.990;2023-10-09T01:40:44;-2.30;99.90
30063;DHT22;16889;67.864;24.990;2023-10-09T01:45:30;-2.20;99.90
30063;DHT22;16889;67.864;24.990;2023-10-09T01:50:27;-2.20;99.90
30063;DHT22;16889;67.864;24.990;2023-10-09T01:55:17;-2.10;99.90
30063;DHT22;16889;67.864;24.990;2023-10-09T02:00:20;-2.10;99.90
30063;DHT22;16889;67.864;24.990;2023-10-09T02:05:10;-2.20;99.90
30063;DHT22;16889;67.864;24.990;2023-10-09T02:10:12;-2.20;99.90
30063;DHT22;16889;67.864;24.990;2023-10-09T02:15:29;-2.20;99.90
30063;DHT22;16889;67.864;24.990;2023-10-09T02:20:30;-2.20;99.90
30063;DHT22;16889;67.864;24.990;2023-10-09T02:25:16;-2.20;99.90
30063;DHT22;16889;67.864;24.990;2023-10-09T02:30:07;-2.20;99.90
30063;DHT22;16889;67.864;24.990;2023-10-09T02:35:05;-2.20;99.90
30063;DHT22;16889;67.864;24.990;2023-10-09T02:40:05;-2.20;99.90
30063;DHT22;16889;67.864;24.990;2023-10-09T02:44:54;-2.20;99.90
30063;DHT22;16889;67.864;24.990;2023-10-09T02:49:40;-2.20;99.90
30063;DHT22;16889;67.864;24.990;2023-10-09T02:54:26;-2.10;99.90
30063;DHT22;16889;67.864;24.990;2023-10-09T02:59:21;-2.10;99.90
30063;DHT22;16889;67.864;24.990;2023-10-09T03:26:57;-1.90;99.90
30063;DHT22;16889;67.864;24.990;2023-10-09T03:31:43;-2.00;99.90
30063;DHT22;16889;67.864;24.990;2023-10-09T03:36:29;-2.00;99.90
30063;DHT22;16889;67.864;24.990;2023-10-09T03:41:25;-2.00;99.90
30063;DHT22;16889;67.864;24.990;2023-10-09T03:46:15;-2.10;99.90
30063;DHT22;16889;67.864;24.990;2023-10-09T03:51:09;-2.10;99.90
30063;DHT22;16889;67.864;24.990;2023-10-09T03:55:57;-2.20;99.90
30063;DHT22;16889;67.864;24.990;2023-10-09T04:00:45;-2.20;99.90
30063;DHT22;16889;67.864;24.990;2023-10-09T04:05:31;-2.30;99.90
30063;DHT22;16889;67.864;24.990;2023-10-09T04:10:16;-2.30;99.90
30063;DHT22;16889;67.864;24.990;2023-10-09T04:15:21;-2.30;99.90
30063;DHT22;16889;67.864;24.990;2023-10-09T04:20:09;-2.40;99.90
30063;DHT22;16889;67.864;24.990;2023-10-09T04:25:05;-2.40;99.90
30063;DHT22;16889;67.864;24.990;2023-10-09T04:30:00;-2.50;99.90
30063;DHT22;16889;67.864;24.990;2023-10-09T04:34:46;-2.60;99.90
30063;DHT22;16889;67.864;24.990;2023-10-09T04:39:35;-2.70;99.90
30063;DHT22;16889;67.864;24.990;2023-10-09T04:44:22;-2.80;99.90
30063;DHT22;16889;67.864;24.990;2023-10-09T04:49:15;-2.80;99.90
30063;DHT22;16889;67.864;24.990;2023-10-09T04:54:13;-2.80;99.90
30063;DHT22;16889;67.864;24.990;2023-10-09T04:58:59;-2.80;99.90
30063;DHT22;16889;67.864;24.990;2023-10-09T05:03:53;-2.90;99.90
30063;DHT22;16889;67.864;24.990;2023-10-09T05:08:42;-3.00;99.90
30063;DHT22;16889;67.864;24.990;2023-10-09T05:13:33;-3.10;99.90
30063;DHT22;16889;67.864;24.990;2023-10-09T05:18:25;-3.20;99.90
30063;DHT22;16889;67.864;24.990;2023-10-09T05:23:13;-3.30;99.90
30063;DHT22;16889;67.864;24.990;2023-10-09T05:28:14;-3.30;99.90
30063;DHT22;16889;67.864;24.990;2023-10-09T05:33:35;-3.30;99.90
30063;DHT22;16889;67.864;24.990;2023-10-09T05:38:22;-3.30;99.90
30063;DHT22;16889;67.864;24.990;2023-10-09T05:43:11;-3.30;99.90
30063;DHT22;16889;67.864;24.990;2023-10-09T05:48:16;-3.40;99.90
30063;DHT22;16889;67.864;24.990;2023-10-09T05:53:03;-3.40;99.90
30063;DHT22;16889;67.864;24.990;2023-10-09T05:57:52;-3.40;99.90
30063;DHT22;16889;67.864;24.990;2023-10-09T06:36:52;-3.00;99.90
30063;DHT22;16889;67.864;24.990;2023-10-09T06:41:38;-2.80;99.90
30063;DHT22;16889;67.864;24.990;2023-10-09T06:46:31;-2.60;99.90
30063;DHT22;16889;67.864;24.990;2023-10-09T06:51:38;-2.40;99.90
30063;DHT22;16889;67.864;24.990;2023-10-09T06:56:29;-2.00;99.90
30063;DHT22;16889;67.864;24.990;2023-10-09T07:01:15;-1.50;99.90
30063;DHT22;16889;67.864;24.990;2023-10-09T07:06:12;-1.50;99.90
30063;DHT22;16889;67.864;24.990;2023-10-09T07:11:10;-1.50;99.90
30063;DHT22;16889;67.864;24.990;2023-10-09T07:16:28;-1.30;99.90
30063;DHT22;16889;67.864;24.990;2023-10-09T07:21:24;-1.30;99.90
30063;DHT22;16889;67.864;24.990;2023-10-09T07:26:13;-1.00;99.90
30063;DHT22;16889;67.864;24.990;2023-10-09T07:31:21;-0.70;99.90
30063;DHT22;16889;67.864;24.990;2023-10-09T07:36:09;-0.30;99.90
30063;DHT22;16889;67.864;24.990;2023-10-09T07:40:58;-0.20;99.90
30063;DHT22;16889;67.864;24.990;2023-10-09T07:45:53;0.00;99.90
30063;DHT22;16889;67.864;24.990;2023-10-09T07:50:59;0.20;99.90
30063;DHT22;16889;67.864;24.990;2023-10-09T07:55:46;0.40;99.90
30063;DHT22;16889;67.864;24.990;2023-10-09T08:00:42;0.40;99.90
30063;DHT22;16889;67.864;24.990;2023-10-09T08:05:46;0.40;99.90
30063;DHT22;16889;67.864;24.990;2023-10-09T08:10:32;0.20;99.90
30063;DHT22;16889;67.864;24.990;2023-10-09T08:15:18;0.70;99.90
30063;DHT22;16889;67.864;24.990;2023-10-09T08:20:05;0.70;99.90
30063;DHT22;16889;67.864;24.990;2023-10-09T08:24:57;0.60;99.90
30063;DHT22;16889;67.864;24.990;2023-10-09T08:29:45;0.70;99.90
30063;DHT22;16889;67.864;24.990;2023-10-09T08:34:33;0.60;99.90
30063;DHT22;16889;67.864;24.990;2023-10-09T08:39:34;0.60;99.90
30063;DHT22;16889;67.864;24.990;2023-10-09T08:44:24;0.70;99.90
30063;DHT22;16889;67.864;24.990;2023-10-09T08:49:11;0.60;99.90
30063;DHT22;16889;67.864;24.990;2023-10-09T08:53:57;0.90;99.90
30063;DHT22;16889;67.864;24.990;2023-10-09T08:58:43;1.10;99.90
30063;DHT22;16889;67.864;24.990;2023-10-09T09:03:40;1.20;99.90
30063;DHT22;16889;67.864;24.990;2023-10-09T09:08:31;1.10;99.90
30063;DHT22;16889;67.864;24.990;2023-10-09T09:13:21;1.20;99.90
30063;DHT22;16889;67.864;24.990;2023-10-09T09:18:08;1.50;99.90
30063;DHT22;16889;67.864;24.990;2023-10-09T09:23:03;1.50;99.90
30063;DHT22;16889;67.864;24.990;2023-10-09T09:27:50;1.50;99.90
30063;DHT22;16889;67.864;24.990;2023-10-09T09:32:41;1.60;99.90
30063;DHT22;16889;67.864;24.990;2023-10-09T09:37:53;1.80;99.90
30063;DHT22;16889;67.864;24.990;2023-10-09T09:42:43;1.80;99.90
30063;DHT22;16889;67.864;24.990;2023-10-09T09:47:34;1.80;99.90
30063;DHT22;16889;67.864;24.990;2023-10-09T09:52:23;1.70;99.90
30063;DHT22;16889;67.864;24.990;2023-10-09T09:57:13;1.40;99.90
30063;DHT22;16889;67.864;24.990;2023-10-09T10:02:01;1.20;99.90
30063;DHT22;16889;67.864;24.990;2023-10-09T10:06:55;1.20;99.90
30063;DHT22;16889;67.864;24.990;2023-10-09T10:11:46;1.50;99.90
30063;DHT22;16889;67.864;24.990;2023-10-09T10:17:06;1.20;99.90
30063;DHT22;16889;67.864;24.990;2023-10-09T10:22:25;1.40;99.90
30063;DHT22;16889;67.864;24.990;2023-10-09T10:32:04;1.30;99.90
30063;DHT22;16889;67.864;24.990;2023-10-09T10:36:54;1.20;99.90
30063;DHT22;16889;67.864;24.990;2023-10-09T10:41:56;1.00;99.90
30063;DHT22;16889;67.864;24.990;2023-10-09T10:46:43;1.10;99.90
30063;DHT22;16889;67.864;24.990;2023-10-09T10:51:36;1.50;99.90
30063;DHT22;16889;67.864;24.990;2023-10-09T10:56:26;1.50;99.90
30063;DHT22;16889;67.864;24.990;2023-10-09T11:01:22;1.50;99.90
30063;DHT22;16889;67.864;24.990;2023-10-09T11:06:11;1.30;99.90
30063;DHT22;16889;67.864;24.990;2023-10-09T11:11:13;1.30;99.90
30063;DHT22;16889;67.864;24.990;2023-10-09T11:16:05;1.20;99.90
30063;DHT22;16889;67.864;24.990;2023-10-09T11:21:00;1.40;99.90
30063;DHT22;16889;67.864;24.990;2023-10-09T11:25:49;1.50;99.90
30063;DHT22;16889;67.864;24.990;2023-10-09T11:30:38;1.30;99.90
30063;DHT22;16889;67.864;24.990;2023-10-09T11:35:26;1.40;99.90
30063;DHT22;16889;67.864;24.990;2023-10-09T11:40:33;1.30;99.90
30063;DHT22;16889;67.864;24.990;2023-10-09T11:45:37;1.30;99.90
30063;DHT22;16889;67.864;24.990;2023-10-09T11:50:42;1.50;99.90
30063;DHT22;16889;67.864;24.990;2023-10-09T11:55:38;1.80;99.90
30063;DHT22;16889;67.864;24.990;2023-10-09T12:00:24;1.80;99.90
30063;DHT22;16889;67.864;24.990;2023-10-09T12:05:11;1.90;99.90
30063;DHT22;16889;67.864;24.990;2023-10-09T12:10:02;1.90;99.90
30063;DHT22;16889;67.864;24.990;2023-10-09T12:14:50;2.00;99.90
30063;DHT22;16889;67.864;24.990;2023-10-09T12:19:39;1.80;99.90
30063;DHT22;16889;67.864;24.990;2023-10-09T12:24:25;1.70;99.90
30063;DHT22;16889;67.864;24.990;2023-10-09T12:29:12;1.70;99.90
30063;DHT22;16889;67.864;24.990;2023-10-09T12:33:58;1.80;99.90
30063;DHT22;16889;67.864;24.990;2023-10-09T12:38:45;1.90;99.90
30063;DHT22;16889;67.864;24.990;2023-10-09T12:43:36;2.10;99.90
30063;DHT22;16889;67.864;24.990;2023-10-09T12:48:23;2.10;99.90
30063;DHT22;16889;67.864;24.990;2023-10-09T12:53:09;2.10;99.90
30063;DHT22;16889;67.864;24.990;2023-10-09T12:57:56;2.20;99.90
30063;DHT22;16889;67.864;24.990;2023-10-09T13:02:46;2.00;99.90
30063;DHT22;16889;67.864;24.990;2023-10-09T13:07:33;2.00;99.90
30063;DHT22;16889;67.864;24.990;2023-10-09T13:12:19;2.10;99.90
30063;DHT22;16889;67.864;24.990;2023-10-09T13:17:05;1.90;99.90
30063;DHT22;16889;67.864;24.990;2023-10-09T13:21:55;1.90;99.90
30063;DHT22;16889;67.864;24.990;2023-10-09T13:26:43;2.00;99.90
30063;DHT22;16889;67.864;24.990;2023-10-09T13:31:37;2.00;99.90
30063;DHT22;16889;67.864;24.990;2023-10-09T13:36:24;1.90;99.90
30063;DHT22;16889;67.864;24.990;2023-10-09T13:41:13;1.60;99.90
30063;DHT22;16889;67.864;24.990;2023-10-09T13:46:03;1.60;99.90
30063;DHT22;16889;67.864;24.990;2023-10-09T13:50:51;1.30;99.90
30063;DHT22;16889;67.864;24.990;2023-10-09T13:55:43;1.30;99.90
30063;DHT22;16889;67.864;24.990;2023-10-09T14:00:30;1.30;99.90
30063;DHT22;16889;67.864;24.990;2023-10-09T14:05:19;1.20;99.90
30063;DHT22;16889;67.864;24.990;2023-10-09T14:10:06;1.10;99.90
30063;DHT22;16889;67.864;24.990;2023-10-09T14:15:03;1.00;99.90
30063;DHT22;16889;67.864;24.990;2023-10-09T14:19:50;0.80;99.90
30063;DHT22;16889;67.864;24.990;2023-10-09T14:24:36;0.70;99.90
30063;DHT22;16889;67.864;24.990;2023-10-09T14:29:24;0.60;99.90
30063;DHT22;16889;67.864;24.990;2023-10-09T14:34:12;0.50;99.90
30063;DHT22;16889;67.864;24.990;2023-10-09T14:38:58;0.40;99.90
30063;DHT22;16889;67.864;24.990;2023-10-09T14:43:45;0.40;99.90
30063;DHT22;16889;67.864;24.990;2023-10-09T14:48:33;0.50;99.90
30063;DHT22;16889;67.864;24.990;2023-10-09T14:53:23;0.30;99.90
30063;DHT22;16889;67.864;24.990;2023-10-09T14:58:12;0.30;99.90
30063;DHT22;16889;67.864;24.990;2023-10-09T15:02:58;0.30;99.90
30063;DHT22;16889;67.864;24.990;2023-10-09T15:07:44;0.00;99.90
30063;DHT22;16889;67.864;24.990;2023-10-09T15:12:31;0.00;99.90
30063;DHT22;16889;67.864;24.990;2023-10-09T15:17:17;0.10;99.90
30063;DHT22;16889;67.864;24.990;2023-10-09T15:22:03;-0.20;99.90
30063;DHT22;16889;67.864;24.990;2023-10-09T15:26:54;-0.10;99.90
30063;DHT22;16889;67.864;24.990;2023-10-09T15:31:43;-0.20;99.90
30063;DHT22;16889;67.864;24.990;2023-10-09T15:36:29;-0.10;99.90
30063;DHT22;16889;67.864;24.990;2023-10-09T15:41:18;0.00;99.90
30063;DHT22;16889;67.864;24.990;2023-10-09T15:46:16;-0.10;99.90
30063;DHT22;16889;67.864;24.990;2023-10-09T15:51:01;-0.10;99.90
30063;DHT22;16889;67.864;24.990;2023-10-09T15:55:49;-0.10;99.90
30063;DHT22;16889;67.864;24.990;2023-10-09T16:00:37;-0.20;99.90
30063;DHT22;16889;67.864;24.990;2023-10-09T16:05:25;-0.30;99.90
30063;DHT22;16889;67.864;24.990;2023-10-09T16:10:16;-0.20;99.90
30063;DHT22;16889;67.864;24.990;2023-10-09T16:15:03;-0.30;99.90
30063;DHT22;16889;67.864;24.990;2023-10-09T16:19:51;-0.50;99.90
30063;DHT22;16889;67.864;24.990;2023-10-09T16:24:37;-0.60;99.90
30063;DHT22;16889;67.864;24.990;2023-10-09T16:29:23;-0.50;99.90
30063;DHT22;16889;67.864;24.990;2023-10-09T16:34:10;-0.50;99.90
30063;DHT22;16889;67.864;24.990;2023-10-09T16:38:59;-0.60;99.90
30063;DHT22;16889;67.864;24.990;2023-10-09T16:43:45;-0.70;99.90
30063;DHT22;16889;67.864;24.990;2023-10-09T16:48:31;-0.70;99.90
30063;DHT22;16889;67.864;24.990;2023-10-09T16:53:17;-0.80;99.90
30063;DHT22;16889;67.864;24.990;2023-10-09T16:58:03;-0.80;99.90
30063;DHT22;16889;67.864;24.990;2023-10-09T17:02:49;-0.80;99.90
30063;DHT22;16889;67.864;24.990;2023-10-09T17:07:37;-0.70;99.90
30063;DHT22;16889;67.864;24.990;2023-10-09T17:12:24;-0.60;99.90
30063;DHT22;16889;67.864;24.990;2023-10-09T17:17:14;-0.70;99.90
30063;DHT22;16889;67.864;24.990;2023-10-09T17:21:59;-0.70;99.90
30063;DHT22;16889;67.864;24.990;2023-10-09T17:26:56;-0.90;99.90
30063;DHT22;16889;67.864;24.990;2023-10-09T17:31:42;-0.90;99.90
30063;DHT22;16889;67.864;24.990;2023-10-09T17:36:29;-0.90;99.90
30063;DHT22;16889;67.864;24.990;2023-10-09T17:41:16;-0.80;99.90
30063;DHT22;16889;67.864;24.990;2023-10-09T17:46:03;-0.80;99.90
30063;DHT22;16889;67.864;24.990;2023-10-09T17:50:50;-0.80;99.90
30063;DHT22;16889;67.864;24.990;2023-10-09T17:55:38;-0.90;99.90
30063;DHT22;16889;67.864;24.990;2023-10-09T18:00:24;-0.90;99.90
30063;DHT22;16889;67.864;24.990;2023-10-09T18:05:11;-0.80;99.90
30063;DHT22;16889;67.864;24.990;2023-10-09T18:09:57;-0.60;99.90
30063;DHT22;16889;67.864;24.990;2023-10-09T18:14:44;-0.90;99.90
30063;DHT22;16889;67.864;24.990;2023-10-09T18:19:31;-0.80;99.90
30063;DHT22;16889;67.864;24.990;2023-10-09T18:24:18;-1.00;99.90
30063;DHT22;16889;67.864;24.990;2023-10-09T18:29:04;-1.10;99.90
30063;DHT22;16889;67.864;24.990;2023-10-09T18:33:50;-1.20;99.90
30063;DHT22;16889;67.864;24.990;2023-10-09T18:38:38;-1.30;99.90
30063;DHT22;16889;67.864;24.990;2023-10-09T18:43:24;-1.10;99.90
30063;DHT22;16889;67.864;24.990;2023-10-09T18:48:13;-1.30;99.90
30063;DHT22;16889;67.864;24.990;2023-10-09T18:53:03;-1.20;99.90
30063;DHT22;16889;67.864;24.990;2023-10-09T18:57:49;-1.20;99.90
30063;DHT22;16889;67.864;24.990;2023-10-09T19:02:35;-1.20;99.90
30063;DHT22;16889;67.864;24.990;2023-10-09T19:07:22;-1.30;99.90
30063;DHT22;16889;67.864;24.990;2023-10-09T19:12:08;-1.40;99.90
30063;DHT22;16889;67.864;24.990;2023-10-09T19:16:54;-1.50;99.90
30063;DHT22;16889;67.864;24.990;2023-10-09T19:21:43;-1.60;99.90
30063;DHT22;16889;67.864;24.990;2023-10-09T19:26:32;-1.60;99.90
30063;DHT22;16889;67.864;24.990;2023-10-09T19:31:19;-1.70;99.90
30063;DHT22;16889;67.864;24.990;2023-10-09T19:36:10;-1.70;99.90
30063;DHT22;16889;67.864;24.990;2023-10-09T19:41:04;-1.90;99.90
30063;DHT22;16889;67.864;24.990;2023-10-09T19:45:51;-1.90;99.90
30063;DHT22;16889;67.864;24.990;2023-10-09T19:50:37;-2.10;99.90
30063;DHT22;16889;67.864;24.990;2023-10-09T19:55:23;-2.20;99.90
30063;DHT22;16889;67.864;24.990;2023-10-09T20:00:10;-2.20;99.90
30063;DHT22;16889;67.864;24.990;2023-10-09T20:04:57;-2.20;99.90
30063;DHT22;16889;67.864;24.990;2023-10-09T20:09:45;-2.20;99.90
30063;DHT22;16889;67.864;24.990;2023-10-09T20:14:31;-2.30;99.90
30063;DHT22;16889;67.864;24.990;2023-10-09T20:19:17;-2.30;99.90
30063;DHT22;16889;67.864;24.990;2023-10-09T20:24:05;-2.00;99.90
30063;DHT22;16889;67.864;24.990;2023-10-09T20:28:51;-2.00;99.90
30063;DHT22;16889;67.864;24.990;2023-10-09T21:08:40;-1.80;99.90
30063;DHT22;16889;67.864;24.990;2023-10-09T21:13:26;-1.70;99.90
30063;DHT22;16889;67.864;24.990;2023-10-09T21:18:12;-1.70;99.90
30063;DHT22;16889;67.864;24.990;2023-10-09T21:23:00;-1.50;99.90
30063;DHT22;16889;67.864;24.990;2023-10-09T21:27:49;-1.40;99.90
30063;DHT22;16889;67.864;24.990;2023-10-09T21:32:36;-1.30;99.90
30063;DHT22;16889;67.864;24.990;2023-10-09T21:37:26;-1.30;99.90
30063;DHT22;16889;67.864;24.990;2023-10-09T21:42:12;-1.20;99.90
30063;DHT22;16889;67.864;24.990;2023-10-09T21:46:58;-1.30;99.90
30063;DHT22;16889;67.864;24.990;2023-10-09T21:51:44;-1.40;99.90
30063;DHT22;16889;67.864;24.990;2023-10-09T21:56:30;-1.30;99.90
30063;DHT22;16889;67.864;24.990;2023-10-09T22:01:16;-1.40;99.90
30063;DHT22;16889;67.864;24.990;2023-10-09T22:06:04;-1.30;99.90
30063;DHT22;16889;67.864;24.990;2023-10-09T22:10:50;-1.30;99.90
30063;DHT22;16889;67.864;24.990;2023-10-09T22:15:37;-1.30;99.90
30063;DHT22;16889;67.864;24.990;2023-10-09T22:20:23;-1.20;99.90
30063;DHT22;16889;67.864;24.990;2023-10-09T22:25:10;-1.30;99.90
30063;DHT22;16889;67.864;24.990;2023-10-09T22:29:56;-1.30;99.90
30063;DHT22;16889;67.864;24.990;2023-10-09T22:34:43;-1.20;99.90
30063;DHT22;16889;67.864;24.990;2023-10-09T22:39:30;-1.30;99.90
30063;DHT22;16889;67.864;24.990;2023-10-09T22:44:19;-1.40;99.90
30063;DHT22;16889;67.864;24.990;2023-10-09T22:49:05;-1.30;99.90
30063;DHT22;16889;67.864;24.990;2023-10-09T22:53:59;-1.60;99.90
30063;DHT22;16889;67.864;24.990;2023-10-09T22:58:48;-1.50;99.90
30063;DHT22;16889;67.864;24.990;2023-10-09T23:03:38;-1.50;99.90
30063;DHT22;16889;67.864;24.990;2023-10-09T23:08:31;-1.30;99.90
30063;DHT22;16889;67.864;24.990;2023-10-09T23:13:18;-1.30;99.90
30063;DHT22;16889;67.864;24.990;2023-10-09T23:18:19;-1.40;99.90
30063;DHT22;16889;67.864;24.990;2023-10-09T23:23:18;-1.20;99.90
30063;DHT22;16889;67.864;24.990;2023-10-09T23:28:10;-1.30;99.90
30063;DHT22;16889;67.864;24.990;2023-10-09T23:33:22;-1.20;99.90
30063;DHT22;16889;67.864;24.990;2023-10-09T23:38:08;-1.20;99.90
30063;DHT22;16889;67.864;24.990;2023-10-09T23:43:13;-1.30;99.90
30063;DHT22;16889;67.864;24.990;2023-10-09T23:48:01;-1.30;99.90
30063;DHT22;16889;67.864;24.990;2023-10-09T23:52:57;-1.10;99.90
30063;DHT22;16889;67.864;24.990;2023-10-09T23:57:47;-1.10;99.90
